KMMI

McMinn County Airport

Athens, Tennessee, USA
METAR KMMI 230935Z AUTO 00000KT 10SM CLR 03/03 A3026 RMK A01
Observed Flight Rules
Oct-23 @ 09:35 UTC (23 minutes ago) Visual Flight Rules
Visibility Clouds
10 miles
  • Clear skies
Temperatures Readings
Current 3°C / 37°F
Dewpoint 3°C / 37°F
Humidity 100%
Altimeter 30.26" Hg
Pressure 1025 hPa
Elevation 266
METAR KMMI 230935Z AUTO 00000KT 10SM CLR 03/03 A3026 RMK A01
Observed Flight Rules
Oct-23 @ 09:35 UTC
(23 minutes ago)
VFR
Clouds
  • Clear skies
Temperature Dewpoint
3°C / 37°F 3°C / 37°F
Humidity Altimeter Pressure
100% 30.26" Hg 1025 hPa